sensor_id;sensor_type;location;lat;lon;timestamp;P1;durP1;ratioP1;P2;durP2;ratioP2
22937;SDS011;11634;42.734;23.298;2023-06-10T00:00:43;9.88;;;8.90;;
22937;SDS011;11634;42.734;23.298;2023-06-10T00:03:09;10.10;;;8.63;;
22937;SDS011;11634;42.734;23.298;2023-06-10T00:05:35;9.90;;;8.90;;
22937;SDS011;11634;42.734;23.298;2023-06-10T00:08:04;10.10;;;8.75;;
22937;SDS011;11634;42.734;23.298;2023-06-10T00:10:37;12.07;;;8.90;;
22937;SDS011;11634;42.734;23.298;2023-06-10T00:13:03;10.50;;;8.45;;
22937;SDS011;11634;42.734;23.298;2023-06-10T00:15:30;10.25;;;8.60;;
22937;SDS011;11634;42.734;23.298;2023-06-10T00:17:56;10.23;;;9.18;;
22937;SDS011;11634;42.734;23.298;2023-06-10T00:20:22;10.73;;;9.63;;
22937;SDS011;11634;42.734;23.298;2023-06-10T00:22:51;10.27;;;9.25;;
22937;SDS011;11634;42.734;23.298;2023-06-10T00:25:17;11.32;;;8.82;;
22937;SDS011;11634;42.734;23.298;2023-06-10T00:27:43;10.50;;;8.40;;
22937;SDS011;11634;42.734;23.298;2023-06-10T00:30:09;10.90;;;8.85;;
22937;SDS011;11634;42.734;23.298;2023-06-10T00:32:36;9.63;;;8.63;;
22937;SDS011;11634;42.734;23.298;2023-06-10T00:35:03;10.73;;;8.15;;
22937;SDS011;11634;42.734;23.298;2023-06-10T00:37:30;11.35;;;8.80;;
22937;SDS011;11634;42.734;23.298;2023-06-10T00:39:57;9.25;;;8.27;;
22937;SDS011;11634;42.734;23.298;2023-06-10T00:42:24;9.82;;;8.15;;
22937;SDS011;11634;42.734;23.298;2023-06-10T00:44:50;15.13;;;9.60;;
22937;SDS011;11634;42.734;23.298;2023-06-10T00:47:16;10.73;;;8.75;;
22937;SDS011;11634;42.734;23.298;2023-06-10T00:49:43;11.25;;;8.50;;
22937;SDS011;11634;42.734;23.298;2023-06-10T00:52:10;12.80;;;8.48;;
22937;SDS011;11634;42.734;23.298;2023-06-10T00:54:36;12.63;;;8.55;;
22937;SDS011;11634;42.734;23.298;2023-06-10T00:57:04;10.48;;;9.38;;
22937;SDS011;11634;42.734;23.298;2023-06-10T00:59:30;9.90;;;8.90;;
22937;SDS011;11634;42.734;23.298;2023-06-10T01:01:57;9.55;;;8.65;;
22937;SDS011;11634;42.734;23.298;2023-06-10T01:04:23;9.25;;;8.40;;
22937;SDS011;11634;42.734;23.298;2023-06-10T01:12:16;9.25;;;8.40;;
22937;SDS011;11634;42.734;23.298;2023-06-10T01:14:48;9.45;;;8.55;;
22937;SDS011;11634;42.734;23.298;2023-06-10T01:17:16;10.32;;;9.27;;
22937;SDS011;11634;42.734;23.298;2023-06-10T01:19:43;10.98;;;9.85;;
22937;SDS011;11634;42.734;23.298;2023-06-10T01:22:12;10.95;;;9.90;;
22937;SDS011;11634;42.734;23.298;2023-06-10T01:24:41;14.20;;;9.95;;
22937;SDS011;11634;42.734;23.298;2023-06-10T01:27:12;10.57;;;9.48;;
22937;SDS011;11634;42.734;23.298;2023-06-10T01:29:46;11.07;;;9.98;;
22937;SDS011;11634;42.734;23.298;2023-06-10T01:32:21;12.30;;;11.18;;
22937;SDS011;11634;42.734;23.298;2023-06-10T01:34:52;11.45;;;10.35;;
22937;SDS011;11634;42.734;23.298;2023-06-10T01:37:21;11.30;;;10.05;;
22937;SDS011;11634;42.734;23.298;2023-06-10T01:39:50;11.98;;;10.45;;
22937;SDS011;11634;42.734;23.298;2023-06-10T01:42:16;12.13;;;10.77;;
22937;SDS011;11634;42.734;23.298;2023-06-10T01:44:42;12.73;;;11.27;;
22937;SDS011;11634;42.734;23.298;2023-06-10T01:47:08;12.32;;;11.02;;
22937;SDS011;11634;42.734;23.298;2023-06-10T01:49:34;14.70;;;11.35;;
22937;SDS011;11634;42.734;23.298;2023-06-10T01:52:00;13.35;;;11.95;;
22937;SDS011;11634;42.734;23.298;2023-06-10T01:54:26;12.70;;;11.38;;
22937;SDS011;11634;42.734;23.298;2023-06-10T01:56:53;12.52;;;11.25;;
22937;SDS011;11634;42.734;23.298;2023-06-10T01:59:19;14.00;;;11.45;;
22937;SDS011;11634;42.734;23.298;2023-06-10T02:01:45;12.88;;;11.25;;
22937;SDS011;11634;42.734;23.298;2023-06-10T02:04:10;13.00;;;11.13;;
22937;SDS011;11634;42.734;23.298;2023-06-10T02:06:36;13.63;;;11.40;;
22937;SDS011;11634;42.734;23.298;2023-06-10T02:09:03;13.35;;;11.15;;
22937;SDS011;11634;42.734;23.298;2023-06-10T02:11:28;13.48;;;12.07;;
22937;SDS011;11634;42.734;23.298;2023-06-10T02:13:54;13.57;;;12.20;;
22937;SDS011;11634;42.734;23.298;2023-06-10T02:16:20;12.80;;;11.60;;
22937;SDS011;11634;42.734;23.298;2023-06-10T02:18:46;15.10;;;12.23;;
22937;SDS011;11634;42.734;23.298;2023-06-10T02:21:13;12.85;;;11.55;;
22937;SDS011;11634;42.734;23.298;2023-06-10T02:23:39;14.35;;;11.88;;
22937;SDS011;11634;42.734;23.298;2023-06-10T02:26:05;13.85;;;11.55;;
22937;SDS011;11634;42.734;23.298;2023-06-10T02:28:31;13.90;;;11.80;;
22937;SDS011;11634;42.734;23.298;2023-06-10T02:30:58;14.05;;;12.57;;
22937;SDS011;11634;42.734;23.298;2023-06-10T02:33:25;13.65;;;12.27;;
22937;SDS011;11634;42.734;23.298;2023-06-10T02:35:50;12.95;;;11.63;;
22937;SDS011;11634;42.734;23.298;2023-06-10T02:38:16;13.45;;;11.75;;
22937;SDS011;11634;42.734;23.298;2023-06-10T02:40:44;14.82;;;12.35;;
22937;SDS011;11634;42.734;23.298;2023-06-10T02:43:11;13.48;;;12.18;;
22937;SDS011;11634;42.734;23.298;2023-06-10T02:45:37;13.38;;;12.00;;
22937;SDS011;11634;42.734;23.298;2023-06-10T02:48:03;14.02;;;12.63;;
22937;SDS011;11634;42.734;23.298;2023-06-10T02:50:30;13.13;;;11.73;;
22937;SDS011;11634;42.734;23.298;2023-06-10T02:53:04;17.58;;;13.20;;
22937;SDS011;11634;42.734;23.298;2023-06-10T02:55:32;16.20;;;12.43;;
22937;SDS011;11634;42.734;23.298;2023-06-10T02:58:03;14.07;;;12.68;;
22937;SDS011;11634;42.734;23.298;2023-06-10T03:00:31;13.88;;;12.45;;
22937;SDS011;11634;42.734;23.298;2023-06-10T03:02:56;14.07;;;12.77;;
22937;SDS011;11634;42.734;23.298;2023-06-10T03:05:27;14.68;;;12.40;;
22937;SDS011;11634;42.734;23.298;2023-06-10T03:07:55;14.30;;;12.40;;
22937;SDS011;11634;42.734;23.298;2023-06-10T03:10:22;14.30;;;12.80;;
22937;SDS011;11634;42.734;23.298;2023-06-10T03:12:52;14.68;;;12.65;;
22937;SDS011;11634;42.734;23.298;2023-06-10T03:15:17;15.85;;;12.57;;
22937;SDS011;11634;42.734;23.298;2023-06-10T03:17:46;13.40;;;11.68;;
22937;SDS011;11634;42.734;23.298;2023-06-10T03:20:12;13.18;;;10.57;;
22937;SDS011;11634;42.734;23.298;2023-06-10T03:22:42;11.75;;;10.55;;
22937;SDS011;11634;42.734;23.298;2023-06-10T03:25:09;10.45;;;9.35;;
22937;SDS011;11634;42.734;23.298;2023-06-10T03:27:42;9.35;;;8.30;;
22937;SDS011;11634;42.734;23.298;2023-06-10T03:30:08;12.38;;;8.93;;
22937;SDS011;11634;42.734;23.298;2023-06-10T03:32:36;8.70;;;7.80;;
22937;SDS011;11634;42.734;23.298;2023-06-10T03:35:05;8.38;;;7.57;;
22937;SDS011;11634;42.734;23.298;2023-06-10T03:37:33;10.23;;;8.00;;
22937;SDS011;11634;42.734;23.298;2023-06-10T03:39:58;7.70;;;7.00;;
22937;SDS011;11634;42.734;23.298;2023-06-10T03:42:25;7.75;;;7.05;;
22937;SDS011;11634;42.734;23.298;2023-06-10T03:44:51;7.80;;;7.00;;
22937;SDS011;11634;42.734;23.298;2023-06-10T03:47:17;8.20;;;7.40;;
22937;SDS011;11634;42.734;23.298;2023-06-10T03:49:43;9.30;;;7.32;;
22937;SDS011;11634;42.734;23.298;2023-06-10T03:52:10;8.63;;;7.57;;
22937;SDS011;11634;42.734;23.298;2023-06-10T03:54:36;9.32;;;7.28;;
22937;SDS011;11634;42.734;23.298;2023-06-10T03:57:02;8.18;;;7.47;;
22937;SDS011;11634;42.734;23.298;2023-06-10T03:59:29;9.80;;;7.30;;
22937;SDS011;11634;42.734;23.298;2023-06-10T04:01:55;8.48;;;7.47;;
22937;SDS011;11634;42.734;23.298;2023-06-10T04:04:21;7.95;;;7.15;;
22937;SDS011;11634;42.734;23.298;2023-06-10T04:06:47;9.10;;;7.85;;
22937;SDS011;11634;42.734;23.298;2023-06-10T04:09:16;10.30;;;7.75;;
22937;SDS011;11634;42.734;23.298;2023-06-10T04:11:45;8.25;;;7.55;;
22937;SDS011;11634;42.734;23.298;2023-06-10T04:14:12;9.27;;;8.35;;
22937;SDS011;11634;42.734;23.298;2023-06-10T04:16:40;9.95;;;8.70;;
22937;SDS011;11634;42.734;23.298;2023-06-10T04:19:07;10.57;;;8.63;;
22937;SDS011;11634;42.734;23.298;2023-06-10T04:21:32;9.50;;;8.52;;
22937;SDS011;11634;42.734;23.298;2023-06-10T04:23:58;9.13;;;8.23;;
22937;SDS011;11634;42.734;23.298;2023-06-10T04:26:24;9.80;;;8.85;;
22937;SDS011;11634;42.734;23.298;2023-06-10T04:28:51;14.00;;;11.35;;
22937;SDS011;11634;42.734;23.298;2023-06-10T04:31:17;9.60;;;8.70;;
22937;SDS011;11634;42.734;23.298;2023-06-10T04:33:43;9.93;;;9.00;;
22937;SDS011;11634;42.734;23.298;2023-06-10T04:36:10;10.75;;;9.57;;
22937;SDS011;11634;42.734;23.298;2023-06-10T04:38:35;10.70;;;9.70;;
22937;SDS011;11634;42.734;23.298;2023-06-10T04:41:01;12.05;;;9.60;;
22937;SDS011;11634;42.734;23.298;2023-06-10T04:43:30;11.77;;;9.80;;
22937;SDS011;11634;42.734;23.298;2023-06-10T04:45:58;10.38;;;9.38;;
22937;SDS011;11634;42.734;23.298;2023-06-10T04:48:25;16.63;;;10.48;;
22937;SDS011;11634;42.734;23.298;2023-06-10T04:50:52;10.98;;;9.88;;
22937;SDS011;11634;42.734;23.298;2023-06-10T04:53:21;11.40;;;10.23;;
22937;SDS011;11634;42.734;23.298;2023-06-10T04:55:46;11.07;;;10.07;;
22937;SDS011;11634;42.734;23.298;2023-06-10T04:58:14;11.30;;;10.20;;
22937;SDS011;11634;42.734;23.298;2023-06-10T05:00:40;10.80;;;9.90;;
22937;SDS011;11634;42.734;23.298;2023-06-10T05:03:05;11.32;;;10.23;;
22937;SDS011;11634;42.734;23.298;2023-06-10T05:05:31;11.18;;;10.02;;
22937;SDS011;11634;42.734;23.298;2023-06-10T05:07:57;12.45;;;11.25;;
22937;SDS011;11634;42.734;23.298;2023-06-10T05:10:22;12.32;;;11.18;;
22937;SDS011;11634;42.734;23.298;2023-06-10T05:12:48;12.13;;;10.88;;
22937;SDS011;11634;42.734;23.298;2023-06-10T05:15:14;12.52;;;11.32;;
22937;SDS011;11634;42.734;23.298;2023-06-10T05:17:40;12.30;;;10.43;;
22937;SDS011;11634;42.734;23.298;2023-06-10T05:20:05;11.15;;;10.05;;
22937;SDS011;11634;42.734;23.298;2023-06-10T05:22:31;10.40;;;9.23;;
22937;SDS011;11634;42.734;23.298;2023-06-10T05:24:57;9.73;;;8.82;;
22937;SDS011;11634;42.734;23.298;2023-06-10T05:27:26;10.15;;;9.25;;
22937;SDS011;11634;42.734;23.298;2023-06-10T05:29:52;10.35;;;9.20;;
22937;SDS011;11634;42.734;23.298;2023-06-10T05:32:18;10.55;;;9.38;;
22937;SDS011;11634;42.734;23.298;2023-06-10T05:34:44;10.50;;;9.48;;
22937;SDS011;11634;42.734;23.298;2023-06-10T05:37:10;10.73;;;9.07;;
22937;SDS011;11634;42.734;23.298;2023-06-10T05:39:36;10.40;;;9.25;;
22937;SDS011;11634;42.734;23.298;2023-06-10T05:42:07;10.45;;;9.32;;
22937;SDS011;11634;42.734;23.298;2023-06-10T05:44:34;11.00;;;9.90;;
22937;SDS011;11634;42.734;23.298;2023-06-10T05:46:59;10.30;;;9.32;;
22937;SDS011;11634;42.734;23.298;2023-06-10T05:49:28;10.98;;;9.82;;
22937;SDS011;11634;42.734;23.298;2023-06-10T05:51:57;10.88;;;9.73;;
22937;SDS011;11634;42.734;23.298;2023-06-10T05:54:26;11.95;;;10.75;;
22937;SDS011;11634;42.734;23.298;2023-06-10T05:56:52;11.88;;;10.73;;
22937;SDS011;11634;42.734;23.298;2023-06-10T05:59:17;11.40;;;10.30;;
22937;SDS011;11634;42.734;23.298;2023-06-10T06:01:43;11.00;;;10.02;;
22937;SDS011;11634;42.734;23.298;2023-06-10T06:04:09;10.55;;;9.25;;
22937;SDS011;11634;42.734;23.298;2023-06-10T06:06:35;9.10;;;8.15;;
22937;SDS011;11634;42.734;23.298;2023-06-10T06:09:03;9.98;;;7.07;;
22937;SDS011;11634;42.734;23.298;2023-06-10T06:11:29;8.32;;;7.35;;
22937;SDS011;11634;42.734;23.298;2023-06-10T06:13:55;8.15;;;6.82;;
22937;SDS011;11634;42.734;23.298;2023-06-10T06:16:21;9.23;;;6.93;;
22937;SDS011;11634;42.734;23.298;2023-06-10T06:18:46;18.27;;;10.75;;
22937;SDS011;11634;42.734;23.298;2023-06-10T06:21:12;7.70;;;6.38;;
22937;SDS011;11634;42.734;23.298;2023-06-10T06:23:38;10.57;;;7.10;;
22937;SDS011;11634;42.734;23.298;2023-06-10T06:26:03;7.75;;;7.05;;
22937;SDS011;11634;42.734;23.298;2023-06-10T06:28:29;7.32;;;6.38;;
22937;SDS011;11634;42.734;23.298;2023-06-10T06:30:56;7.00;;;6.30;;
22937;SDS011;11634;42.734;23.298;2023-06-10T06:33:22;7.60;;;6.47;;
22937;SDS011;11634;42.734;23.298;2023-06-10T06:35:48;8.43;;;5.88;;
22937;SDS011;11634;42.734;23.298;2023-06-10T06:38:14;8.63;;;6.60;;
22937;SDS011;11634;42.734;23.298;2023-06-10T06:40:39;7.13;;;6.20;;
22937;SDS011;11634;42.734;23.298;2023-06-10T06:43:05;6.75;;;6.07;;
22937;SDS011;11634;42.734;23.298;2023-06-10T06:45:33;7.05;;;6.20;;
22937;SDS011;11634;42.734;23.298;2023-06-10T06:47:59;8.05;;;6.68;;
22937;SDS011;11634;42.734;23.298;2023-06-10T06:50:25;8.82;;;7.32;;
22937;SDS011;11634;42.734;23.298;2023-06-10T06:52:54;7.82;;;7.13;;
22937;SDS011;11634;42.734;23.298;2023-06-10T06:55:19;8.15;;;7.22;;
22937;SDS011;11634;42.734;23.298;2023-06-10T06:57:45;11.77;;;8.43;;
22937;SDS011;11634;42.734;23.298;2023-06-10T07:00:12;11.38;;;7.20;;
22937;SDS011;11634;42.734;23.298;2023-06-10T07:02:37;10.18;;;6.97;;
22937;SDS011;11634;42.734;23.298;2023-06-10T07:05:03;8.02;;;7.22;;
22937;SDS011;11634;42.734;23.298;2023-06-10T07:07:29;8.27;;;7.40;;
22937;SDS011;11634;42.734;23.298;2023-06-10T07:09:55;15.65;;;11.00;;
22937;SDS011;11634;42.734;23.298;2023-06-10T07:12:20;8.23;;;6.95;;
22937;SDS011;11634;42.734;23.298;2023-06-10T07:14:51;9.60;;;7.20;;
22937;SDS011;11634;42.734;23.298;2023-06-10T07:17:17;10.55;;;6.88;;
22937;SDS011;11634;42.734;23.298;2023-06-10T07:19:43;8.07;;;6.70;;
22937;SDS011;11634;42.734;23.298;2023-06-10T07:22:09;6.90;;;5.80;;
22937;SDS011;11634;42.734;23.298;2023-06-10T07:24:35;7.40;;;6.22;;
22937;SDS011;11634;42.734;23.298;2023-06-10T07:27:04;8.68;;;6.30;;
22937;SDS011;11634;42.734;23.298;2023-06-10T07:29:33;6.40;;;5.80;;
22937;SDS011;11634;42.734;23.298;2023-06-10T07:32:04;7.07;;;5.90;;
22937;SDS011;11634;42.734;23.298;2023-06-10T07:34:30;10.15;;;6.03;;
22937;SDS011;11634;42.734;23.298;2023-06-10T07:36:55;7.45;;;6.07;;
22937;SDS011;11634;42.734;23.298;2023-06-10T07:39:21;5.80;;;5.20;;
22937;SDS011;11634;42.734;23.298;2023-06-10T07:41:47;4.75;;;3.83;;
22937;SDS011;11634;42.734;23.298;2023-06-10T07:44:14;5.18;;;4.10;;
22937;SDS011;11634;42.734;23.298;2023-06-10T07:46:40;7.20;;;4.18;;
22937;SDS011;11634;42.734;23.298;2023-06-10T07:49:05;6.15;;;3.92;;
22937;SDS011;11634;42.734;23.298;2023-06-10T07:51:31;3.50;;;3.20;;
22937;SDS011;11634;42.734;23.298;2023-06-10T07:53:56;4.38;;;3.97;;
22937;SDS011;11634;42.734;23.298;2023-06-10T07:56:22;4.53;;;4.07;;
22937;SDS011;11634;42.734;23.298;2023-06-10T07:58:48;4.68;;;4.18;;
22937;SDS011;11634;42.734;23.298;2023-06-10T08:01:13;6.97;;;4.70;;
22937;SDS011;11634;42.734;23.298;2023-06-10T08:03:39;4.90;;;4.40;;
22937;SDS011;11634;42.734;23.298;2023-06-10T08:06:04;5.53;;;5.03;;
22937;SDS011;11634;42.734;23.298;2023-06-10T08:08:30;7.85;;;5.00;;
22937;SDS011;11634;42.734;23.298;2023-06-10T08:10:56;5.20;;;4.68;;
22937;SDS011;11634;42.734;23.298;2023-06-10T08:13:25;4.47;;;4.03;;
22937;SDS011;11634;42.734;23.298;2023-06-10T08:15:50;4.70;;;3.78;;
22937;SDS011;11634;42.734;23.298;2023-06-10T08:18:18;5.72;;;4.55;;
22937;SDS011;11634;42.734;23.298;2023-06-10T08:20:44;5.65;;;3.90;;
22937;SDS011;11634;42.734;23.298;2023-06-10T08:23:10;4.18;;;3.78;;
22937;SDS011;11634;42.734;23.298;2023-06-10T08:25:35;5.15;;;4.05;;
22937;SDS011;11634;42.734;23.298;2023-06-10T08:28:01;4.65;;;3.92;;
22937;SDS011;11634;42.734;23.298;2023-06-10T08:30:27;3.80;;;3.50;;
22937;SDS011;11634;42.734;23.298;2023-06-10T08:32:52;5.75;;;4.20;;
22937;SDS011;11634;42.734;23.298;2023-06-10T08:35:18;4.53;;;4.13;;
22937;SDS011;11634;42.734;23.298;2023-06-10T08:37:45;4.63;;;3.67;;
22937;SDS011;11634;42.734;23.298;2023-06-10T08:40:11;3.90;;;3.15;;
22937;SDS011;11634;42.734;23.298;2023-06-10T08:45:32;4.20;;;3.22;;
22937;SDS011;11634;42.734;23.298;2023-06-10T08:48:02;3.65;;;2.70;;
22937;SDS011;11634;42.734;23.298;2023-06-10T08:50:35;3.40;;;3.10;;
22937;SDS011;11634;42.734;23.298;2023-06-10T08:53:04;3.30;;;2.92;;
22937;SDS011;11634;42.734;23.298;2023-06-10T08:58:00;2.67;;;2.38;;
22937;SDS011;11634;42.734;23.298;2023-06-10T09:00:26;2.70;;;2.50;;
22937;SDS011;11634;42.734;23.298;2023-06-10T09:02:53;2.67;;;2.47;;
22937;SDS011;11634;42.734;23.298;2023-06-10T09:05:20;2.85;;;2.60;;
22937;SDS011;11634;42.734;23.298;2023-06-10T09:07:47;2.30;;;2.10;;
22937;SDS011;11634;42.734;23.298;2023-06-10T09:10:13;3.35;;;2.70;;
22937;SDS011;11634;42.734;23.298;2023-06-10T09:12:40;3.22;;;2.67;;
22937;SDS011;11634;42.734;23.298;2023-06-10T09:15:06;3.20;;;2.78;;
22937;SDS011;11634;42.734;23.298;2023-06-10T09:17:33;3.28;;;2.97;;
22937;SDS011;11634;42.734;23.298;2023-06-10T09:19:59;3.10;;;2.60;;
22937;SDS011;11634;42.734;23.298;2023-06-10T09:22:25;4.75;;;2.88;;
22937;SDS011;11634;42.734;23.298;2023-06-10T09:24:52;3.03;;;2.60;;
22937;SDS011;11634;42.734;23.298;2023-06-10T09:27:43;4.65;;;2.97;;
22937;SDS011;11634;42.734;23.298;2023-06-10T09:30:10;6.18;;;2.95;;
22937;SDS011;11634;42.734;23.298;2023-06-10T09:32:39;2.47;;;2.22;;
22937;SDS011;11634;42.734;23.298;2023-06-10T09:35:08;2.85;;;2.65;;
22937;SDS011;11634;42.734;23.298;2023-06-10T09:37:35;3.22;;;2.20;;
22937;SDS011;11634;42.734;23.298;2023-06-10T09:40:04;3.53;;;2.60;;
22937;SDS011;11634;42.734;23.298;2023-06-10T09:42:35;2.85;;;2.25;;
22937;SDS011;11634;42.734;23.298;2023-06-10T09:45:02;3.50;;;2.50;;
22937;SDS011;11634;42.734;23.298;2023-06-10T09:47:28;3.15;;;2.33;;
22937;SDS011;11634;42.734;23.298;2023-06-10T09:49:54;2.80;;;2.60;;
22937;SDS011;11634;42.734;23.298;2023-06-10T09:52:23;2.90;;;1.92;;
22937;SDS011;11634;42.734;23.298;2023-06-10T09:54:51;3.47;;;2.38;;
22937;SDS011;11634;42.734;23.298;2023-06-10T09:57:19;2.67;;;2.00;;
22937;SDS011;11634;42.734;23.298;2023-06-10T09:59:52;2.35;;;2.15;;
22937;SDS011;11634;42.734;23.298;2023-06-10T10:02:23;2.58;;;2.38;;
22937;SDS011;11634;42.734;23.298;2023-06-10T10:04:48;3.90;;;2.47;;
22937;SDS011;11634;42.734;23.298;2023-06-10T10:07:14;2.83;;;2.53;;
22937;SDS011;11634;42.734;23.298;2023-06-10T10:09:42;3.33;;;2.53;;
22937;SDS011;11634;42.734;23.298;2023-06-10T10:12:11;3.88;;;2.60;;
22937;SDS011;11634;42.734;23.298;2023-06-10T10:14:40;3.50;;;2.70;;
22937;SDS011;11634;42.734;23.298;2023-06-10T10:17:14;3.15;;;2.60;;
22937;SDS011;11634;42.734;23.298;2023-06-10T10:19:46;3.75;;;2.85;;
22937;SDS011;11634;42.734;23.298;2023-06-10T10:22:18;3.10;;;2.63;;
22937;SDS011;11634;42.734;23.298;2023-06-10T10:24:51;4.40;;;3.35;;
22937;SDS011;11634;42.734;23.298;2023-06-10T10:27:21;2.92;;;2.72;;
22937;SDS011;11634;42.734;23.298;2023-06-10T10:30:07;4.75;;;2.80;;
22937;SDS011;11634;42.734;23.298;2023-06-10T10:32:50;4.00;;;3.17;;
22937;SDS011;11634;42.734;23.298;2023-06-10T10:35:17;4.30;;;2.90;;
22937;SDS011;11634;42.734;23.298;2023-06-10T10:37:50;6.45;;;3.15;;
22937;SDS011;11634;42.734;23.298;2023-06-10T10:40:25;3.92;;;2.95;;
22937;SDS011;11634;42.734;23.298;2023-06-10T10:42:55;3.22;;;2.92;;
22937;SDS011;11634;42.734;23.298;2023-06-10T10:45:24;4.35;;;2.60;;
22937;SDS011;11634;42.734;23.298;2023-06-10T10:47:56;3.08;;;2.50;;
22937;SDS011;11634;42.734;23.298;2023-06-10T10:50:22;3.08;;;2.75;;
22937;SDS011;11634;42.734;23.298;2023-06-10T10:53:03;3.42;;;2.60;;
22937;SDS011;11634;42.734;23.298;2023-06-10T10:55:44;4.53;;;2.70;;
22937;SDS011;11634;42.734;23.298;2023-06-10T10:58:31;3.88;;;2.80;;
22937;SDS011;11634;42.734;23.298;2023-06-10T11:01:02;3.50;;;3.00;;
22937;SDS011;11634;42.734;23.298;2023-06-10T11:03:36;4.47;;;3.28;;
22937;SDS011;11634;42.734;23.298;2023-06-10T11:06:11;3.30;;;3.00;;
22937;SDS011;11634;42.734;23.298;2023-06-10T11:11:26;2.92;;;2.70;;
22937;SDS011;11634;42.734;23.298;2023-06-10T11:14:04;4.00;;;3.60;;
22937;SDS011;11634;42.734;23.298;2023-06-10T11:16:38;5.43;;;2.90;;
22937;SDS011;11634;42.734;23.298;2023-06-10T11:19:08;3.75;;;3.20;;
22937;SDS011;11634;42.734;23.298;2023-06-10T11:24:27;2.65;;;2.45;;
22937;SDS011;11634;42.734;23.298;2023-06-10T11:26:54;3.53;;;3.20;;
22937;SDS011;11634;42.734;23.298;2023-06-10T11:29:20;3.35;;;2.67;;
22937;SDS011;11634;42.734;23.298;2023-06-10T11:31:50;3.85;;;3.03;;
22937;SDS011;11634;42.734;23.298;2023-06-10T11:34:23;4.30;;;2.60;;
22937;SDS011;11634;42.734;23.298;2023-06-10T11:36:50;5.20;;;2.83;;
22937;SDS011;11634;42.734;23.298;2023-06-10T11:39:17;3.00;;;2.80;;
22937;SDS011;11634;42.734;23.298;2023-06-10T11:41:43;4.00;;;3.05;;
22937;SDS011;11634;42.734;23.298;2023-06-10T11:44:13;3.40;;;3.05;;
22937;SDS011;11634;42.734;23.298;2023-06-10T11:46:39;3.58;;;3.15;;
22937;SDS011;11634;42.734;23.298;2023-06-10T11:49:07;6.72;;;4.30;;
22937;SDS011;11634;42.734;23.298;2023-06-10T11:51:40;5.25;;;3.03;;
22937;SDS011;11634;42.734;23.298;2023-06-10T11:54:10;3.42;;;3.13;;
22937;SDS011;11634;42.734;23.298;2023-06-10T11:56:36;3.88;;;3.03;;
22937;SDS011;11634;42.734;23.298;2023-06-10T11:59:04;3.20;;;2.90;;
22937;SDS011;11634;42.734;23.298;2023-06-10T12:01:33;2.97;;;2.65;;
22937;SDS011;11634;42.734;23.298;2023-06-10T12:04:06;3.65;;;3.05;;
22937;SDS011;11634;42.734;23.298;2023-06-10T12:06:49;4.30;;;2.90;;
22937;SDS011;11634;42.734;23.298;2023-06-10T12:09:23;3.65;;;3.20;;
22937;SDS011;11634;42.734;23.298;2023-06-10T12:11:53;3.30;;;3.00;;
22937;SDS011;11634;42.734;23.298;2023-06-10T12:17:20;3.35;;;2.80;;
22937;SDS011;11634;42.734;23.298;2023-06-10T12:19:50;3.13;;;2.83;;
22937;SDS011;11634;42.734;23.298;2023-06-10T12:22:16;4.47;;;3.08;;
22937;SDS011;11634;42.734;23.298;2023-06-10T12:24:44;2.97;;;2.70;;
22937;SDS011;11634;42.734;23.298;2023-06-10T12:27:30;3.47;;;3.08;;
22937;SDS011;11634;42.734;23.298;2023-06-10T12:29:57;4.47;;;2.95;;
22937;SDS011;11634;42.734;23.298;2023-06-10T12:33:01;3.60;;;2.70;;
22937;SDS011;11634;42.734;23.298;2023-06-10T12:35:21;4.03;;;2.70;;
22937;SDS011;11634;42.734;23.298;2023-06-10T12:42:54;2.92;;;2.63;;
22937;SDS011;11634;42.734;23.298;2023-06-10T12:45:28;3.22;;;2.90;;
22937;SDS011;11634;42.734;23.298;2023-06-10T12:48:11;3.63;;;3.22;;
22937;SDS011;11634;42.734;23.298;2023-06-10T12:50:42;3.85;;;2.85;;
22937;SDS011;11634;42.734;23.298;2023-06-10T12:53:08;6.28;;;3.17;;
22937;SDS011;11634;42.734;23.298;2023-06-10T12:55:39;3.13;;;2.83;;
22937;SDS011;11634;42.734;23.298;2023-06-10T12:58:05;3.20;;;2.85;;
22937;SDS011;11634;42.734;23.298;2023-06-10T13:00:34;3.38;;;2.92;;
22937;SDS011;11634;42.734;23.298;2023-06-10T13:03:07;4.03;;;2.95;;
22937;SDS011;11634;42.734;23.298;2023-06-10T13:05:37;4.18;;;2.70;;
22937;SDS011;11634;42.734;23.298;2023-06-10T13:08:06;2.97;;;2.78;;
22937;SDS011;11634;42.734;23.298;2023-06-10T13:10:41;5.93;;;3.92;;
22937;SDS011;11634;42.734;23.298;2023-06-10T13:13:07;4.85;;;3.78;;
22937;SDS011;11634;42.734;23.298;2023-06-10T13:15:37;4.30;;;3.60;;
22937;SDS011;11634;42.734;23.298;2023-06-10T13:18:03;8.48;;;3.85;;
22937;SDS011;11634;42.734;23.298;2023-06-10T13:20:30;5.07;;;3.50;;
22937;SDS011;11634;42.734;23.298;2023-06-10T13:22:56;4.57;;;3.72;;
22937;SDS011;11634;42.734;23.298;2023-06-10T13:25:22;4.55;;;3.90;;
22937;SDS011;11634;42.734;23.298;2023-06-10T13:27:48;5.50;;;4.45;;
22937;SDS011;11634;42.734;23.298;2023-06-10T13:30:13;5.32;;;3.83;;
22937;SDS011;11634;42.734;23.298;2023-06-10T13:32:40;5.65;;;3.88;;
22937;SDS011;11634;42.734;23.298;2023-06-10T13:35:05;4.63;;;3.70;;
22937;SDS011;11634;42.734;23.298;2023-06-10T13:37:34;4.85;;;3.95;;
22937;SDS011;11634;42.734;23.298;2023-06-10T13:40:00;6.53;;;4.10;;
22937;SDS011;11634;42.734;23.298;2023-06-10T13:42:27;4.45;;;3.90;;
22937;SDS011;11634;42.734;23.298;2023-06-10T13:44:54;6.85;;;4.38;;
22937;SDS011;11634;42.734;23.298;2023-06-10T13:47:19;4.18;;;3.75;;
22937;SDS011;11634;42.734;23.298;2023-06-10T13:49:46;5.57;;;4.43;;
22937;SDS011;11634;42.734;23.298;2023-06-10T13:52:11;4.50;;;4.07;;
22937;SDS011;11634;42.734;23.298;2023-06-10T13:54:37;6.43;;;4.57;;
22937;SDS011;11634;42.734;23.298;2023-06-10T13:57:02;4.75;;;4.05;;
22937;SDS011;11634;42.734;23.298;2023-06-10T13:59:31;5.65;;;4.78;;
22937;SDS011;11634;42.734;23.298;2023-06-10T14:01:57;5.15;;;4.10;;
22937;SDS011;11634;42.734;23.298;2023-06-10T14:04:23;5.93;;;4.43;;
22937;SDS011;11634;42.734;23.298;2023-06-10T14:06:49;5.80;;;4.95;;
22937;SDS011;11634;42.734;23.298;2023-06-10T14:09:14;5.65;;;4.40;;
22937;SDS011;11634;42.734;23.298;2023-06-10T14:11:42;5.40;;;4.90;;
22937;SDS011;11634;42.734;23.298;2023-06-10T14:14:09;5.90;;;4.82;;
22937;SDS011;11634;42.734;23.298;2023-06-10T14:16:41;5.00;;;4.50;;
22937;SDS011;11634;42.734;23.298;2023-06-10T14:19:06;6.95;;;5.03;;
22937;SDS011;11634;42.734;23.298;2023-06-10T14:21:32;7.57;;;4.63;;
22937;SDS011;11634;42.734;23.298;2023-06-10T14:23:57;6.05;;;4.90;;
22937;SDS011;11634;42.734;23.298;2023-06-10T14:26:23;8.68;;;4.75;;
22937;SDS011;11634;42.734;23.298;2023-06-10T14:28:49;6.35;;;4.78;;
22937;SDS011;11634;42.734;23.298;2023-06-10T14:31:15;6.50;;;4.45;;
22937;SDS011;11634;42.734;23.298;2023-06-10T14:33:44;4.80;;;4.30;;
22937;SDS011;11634;42.734;23.298;2023-06-10T14:36:10;6.68;;;5.03;;
22937;SDS011;11634;42.734;23.298;2023-06-10T14:38:38;8.65;;;4.00;;
22937;SDS011;11634;42.734;23.298;2023-06-10T14:41:04;6.75;;;4.10;;
22937;SDS011;11634;42.734;23.298;2023-06-10T14:43:32;4.90;;;4.40;;
22937;SDS011;11634;42.734;23.298;2023-06-10T14:45:58;4.32;;;4.03;;
22937;SDS011;11634;42.734;23.298;2023-06-10T14:48:26;4.95;;;4.13;;
22937;SDS011;11634;42.734;23.298;2023-06-10T14:50:52;5.35;;;4.25;;
22937;SDS011;11634;42.734;23.298;2023-06-10T14:53:22;5.30;;;3.88;;
22937;SDS011;11634;42.734;23.298;2023-06-10T14:55:50;9.32;;;4.57;;